Daily Weather Observations for Burdell (Townsville)
For Tuesday 19th February 2019

This table is designed for ease of comparison to Bureau of Meteorology recorded weather data.

Station Details Name: BURDELL Lat: -19.24 Lon: 146.69 Height: 8.5 m
Date/Time
EST
Temp
°C
App
Temp
°C
Dew
Point
°C
Rel
Hum
%
Delta-T
°C
Wind Press
QNH
hPa
Press
MSL
hPa
Rain since
9am
mm
Dir  Spd
km/h
Gust
km/h
Spd
kts
Gust
kts
19/11:30pm 28.3 34.9 26.5 90 1.4 N 5 10 3 6 1004.7 1004.7 0.5
19/11:00pm 28.5 35.0 26.3 88 1.7 N 8 16 4 9 1004.6 1004.6 0.5
19/10:30pm 28.4 34.6 26.2 88 1.7 N 12 21 7 11 1004.8 1004.8 0.5
19/10:00pm 28.9 37.2 27.5 92 1.1 N 10 13 5 7 1004.3 1004.3 0.5
19/09:30pm 28.9 37.5 27.7 93 0.9 NNW 11 16 6 9 1004.1 1004.1 0.5
19/09:00pm 28.9 37.2 27.5 92 1.1 NNW 7 13 4 7 1004.1 1004.1 0.5
19/08:30pm 29.2 38.3 27.8 93 1.1 NNE 9 13 5 7 1004.3 1004.3 0.5
19/08:00pm 30.0 39.4 27.4 86 2.0 N 10 16 6 9 1004.1 1004.1 0.0
19/07:30pm 30.2 39.8 27.4 85 2.1 N 15 21 8 11 1002.8 1002.8 0.0
19/07:00pm 30.5 40.2 27.3 83 2.4 N 7 10 4 6 1002.7 1002.7 0.0
19/06:30pm 30.9 40.6 27.2 81 2.8 NNW 15 23 8 13 1001.5 1001.5 0.0
19/06:00pm 31.9 41.6 26.7 74 3.9 N 14 21 7 11 1001.1 1001.1 0.0
19/05:30pm 32.9 44.1 27.3 73 4.3 NNW 13 16 7 9 1001.1 1001.1 0.0
19/05:00pm 33.5 44.6 27.0 69 4.9 NNW 14 18 7 10 1000.8 1000.8 0.0
19/04:30pm 34.2 45.0 26.7 66 5.7 NNW 14 18 7 10 1000.6 1000.6 0.0
19/04:00pm 33.9 45.5 27.2 68 5.1 NNW 15 18 8 10 1000.7 1000.7 0.0
19/03:30pm 33.9 44.1 26.4 65 5.7 NNW 16 18 9 10 1000.7 1000.7 0.0
19/03:00pm 33.7 44.0 26.6 67 5.4 NNW 16 21 9 11 1001.5 1001.5 0.0
19/02:30pm 33.9 44.5 26.7 67 5.4 N 17 23 9 13 1002.0 1002.0 0.0
19/02:00pm 33.5 44.2 26.8 69 5.1 NNW 20 23 11 13 1002.4 1002.4 0.0
19/01:30pm 33.2 43.2 26.5 68 5.1 NNW 15 23 8 13 1002.9 1002.9 0.0
19/01:00pm 32.8 43.3 26.8 71 4.5 NNW 20 23 11 13 1003.2 1003.2 0.0
19/12:30pm 33.1 44.5 27.4 73 4.3 NNW 18 21 10 11 1003.8 1003.8 0.0
19/12:00pm 32.7 43.9 27.4 74 4.0 NNW 18 21 10 11 1004.4 1004.4 0.0
19/11:30am 32.8 44.1 27.3 73 4.2 NNW 18 23 10 13 1004.7 1004.7 0.0
19/11:00am 33.3 44.9 27.5 73 4.4 N 13 21 7 11 1004.9 1004.9 0.0
19/10:30am 32.3 42.9 27.1 74 3.9 NNW 14 18 8 10 1005.7 1005.7 0.0
19/10:00am 31.8 41.3 26.7 75 3.9 NNW 12 16 6 9 1005.9 1005.9 0.0
19/09:30am 31.6 41.4 26.8 76 3.6 NNW 12 18 7 10 1006.1 1006.1 0.0
19/09:00am 30.6 38.9 26.6 80 3.0 NNW 11 16 6 9 1006.3 1006.3 0.0
19/08:30am 29.8 37.6 26.4 82 2.6 NNW 12 16 7 9 1006.5 1006.5 0.0
19/08:00am 29.5 36.9 26.3 83 2.4 W 5 8 3 4 1006.6 1006.6 0.0
19/07:30am 28.7 35.6 26.1 87 1.9 WSW 2 5 1 3 1006.4 1006.4 0.0
19/07:00am 27.5 34.2 25.8 91 1.3 S 2 2 1 1 1006.0 1006.0 0.0
19/06:30am 26.8 33.2 25.4 92 1.0 WSW 2 2 1 1 1005.7 1005.7 0.0
19/06:00am 26.7 33.1 25.3 92 1.0 WSW 1 2 1 1 1005.4 1005.4 0.0
19/05:30am 27.1 33.5 25.3 91 1.3 W 1 2 1 1 1005.2 1005.2 0.0
19/05:00am 27.4 34.0 25.4 89 1.5 NNW 1 2 0 1 1005.1 1005.1 0.0
19/04:30am 27.8 34.6 25.6 88 1.6 WNW 1 2 0 1 1005.0 1005.0 0.0
19/04:00am 28.1 34.7 25.9 88 1.6 NW 3 5 2 3 1005.0 1005.0 0.0
19/03:30am 28.2 33.8 25.8 87 1.8 NNW 8 13 4 7 1004.8 1004.8 0.0
19/03:00am 28.3 34.1 25.9 87 1.8 NNW 10 13 6 7 1005.0 1005.0 0.0
19/02:30am 28.3 33.9 25.7 86 1.9 NNW 8 10 4 6 1005.1 1005.1 0.0
19/02:00am 28.3 33.9 25.7 86 1.9 NNW 10 13 6 7 1005.2 1005.2 0.0
19/01:30am 28.3 33.9 25.7 86 1.9 NNW 11 13 6 7 1005.5 1005.5 0.0
19/01:00am 28.4 34.0 25.6 85 2.1 NNW 16 21 8 11 1005.6 1005.6 0.0
19/12:30am 28.5 34.1 25.5 84 2.2 NNW 12 16 6 9 1006.1 1006.1 0.0
19/12:00am 28.5 34.1 25.5 84 2.2 NNW 13 16 7 9 1006.4 1006.4 0.0
 


NOTE: The apparent temperature specified in the table above is calculated using both the Heat Index and Steadman method. This differs to the Bureau of Meteorology's calculation which uses the Steadman method alone.